Aérodrome :
LOGIN :

S'inscrire | Disclaimer

   EN    FR    IT 

 










Légende :    VFR   VFR Marginal   IFR   IFR Intensif   IFR Très Intensif
Visi : 
Plafond : 
>= 8 km
>= 3000ft
5 à 8 km
1000 à 3000 ft
1500m à 5 km
500 à 1000 ft
800 à 1500m
200 à 500 ft
< 800m
< 200 ft
Symboles :   Orages  Brouillard  Fortes neiges  Fortes précipitations  Vent > 20 kt
SIGMETs :   Divers  Orages  Givrage  Turbulence  Onde Orograph.  Cendres Volcan.






- Altitude de l'aérodrome : 401 ft
- Code IATA : LEQ


EGHC - Land's End

DERNIER METAR :
  • 091550Z 31012KT 9999 FEW014 09/05 Q1024

METARs EXPIRÉS :
  • 091520Z 31015KT 9999 FEW016 10/06 Q1024
  • 091450Z 31017KT 9999 FEW011 09/06 Q1024
  • 091420Z 32021KT 9999 FEW011 10/05 Q1023
  • 091350Z 31022KT 9999 FEW011 10/05 Q1023
  • 091320Z 32021KT 9999 FEW011 10/06 Q1023
  • 091250Z 32023KT 9999 FEW015 10/06 Q1023

TAF TAF EGHC
Valide du 09 à 15h jusqu'au 09 à 18h UTC


091406Z 0915/0918 32020KT 9999 FEW020
BECMG 0915/0918 26008KT



MET'MAP, la Météo Aéronautique d'un coup d'oeil ! - Copyright ORBIFLY Décembre 2007 - Disclaimer

ORBIFLY MET'MAP TEAM :

Programmation & Développement : Alexandra Zaïnal
Sur une idée originale de : Baudouin d'Aumeries
Assistance à la programmation : Marc-Olivier Méhu
Soutien technique & logistique : Manuel Goepfert

Contact : metmap@orbifly.com




SOURCES & CREDITS :

   NOAA